sensor_id;sensor_type;location;lat;lon;timestamp;pressure;altitude;pressure_sealevel;temperature
68588;BMP180;55560;52.174;20.996;2022-08-01T00:00:07;100157.60;;;16.90
68588;BMP180;55560;52.174;20.996;2022-08-01T00:02:55;100156.20;;;16.88
68588;BMP180;55560;52.174;20.996;2022-08-01T00:05:22;100158.20;;;16.90
68588;BMP180;55560;52.174;20.996;2022-08-01T00:07:49;100157.80;;;16.90
68588;BMP180;55560;52.174;20.996;2022-08-01T00:10:16;100156.40;;;16.90
68588;BMP180;55560;52.174;20.996;2022-08-01T00:12:44;100155.80;;;16.90
68588;BMP180;55560;52.174;20.996;2022-08-01T00:15:13;100152.00;;;16.90
68588;BMP180;55560;52.174;20.996;2022-08-01T00:17:41;100150.80;;;16.80
68588;BMP180;55560;52.174;20.996;2022-08-01T00:20:11;100150.20;;;16.80
68588;BMP180;55560;52.174;20.996;2022-08-01T00:22:38;100149.00;;;16.80
68588;BMP180;55560;52.174;20.996;2022-08-01T00:25:06;100146.60;;;16.80
68588;BMP180;55560;52.174;20.996;2022-08-01T00:27:32;100141.40;;;16.80
68588;BMP180;55560;52.174;20.996;2022-08-01T00:30:04;100137.80;;;16.80
68588;BMP180;55560;52.174;20.996;2022-08-01T00:32:43;100137.20;;;16.80
68588;BMP180;55560;52.174;20.996;2022-08-01T00:35:10;100129.60;;;16.80
68588;BMP180;55560;52.174;20.996;2022-08-01T00:37:37;100129.20;;;16.80
68588;BMP180;55560;52.174;20.996;2022-08-01T00:40:06;100125.00;;;16.80
68588;BMP180;55560;52.174;20.996;2022-08-01T00:42:33;100123.20;;;16.80
68588;BMP180;55560;52.174;20.996;2022-08-01T00:44:59;100122.80;;;16.80
68588;BMP180;55560;52.174;20.996;2022-08-01T00:47:26;100122.20;;;16.80
68588;BMP180;55560;52.174;20.996;2022-08-01T00:49:52;100121.60;;;16.80
68588;BMP180;55560;52.174;20.996;2022-08-01T00:52:19;100127.80;;;16.80
68588;BMP180;55560;52.174;20.996;2022-08-01T00:54:46;100124.60;;;16.80
68588;BMP180;55560;52.174;20.996;2022-08-01T00:57:13;100128.60;;;16.80
68588;BMP180;55560;52.174;20.996;2022-08-01T00:59:41;100123.80;;;16.80
68588;BMP180;55560;52.174;20.996;2022-08-01T01:02:08;100128.00;;;16.80
68588;BMP180;55560;52.174;20.996;2022-08-01T01:04:42;100133.20;;;16.80
68588;BMP180;55560;52.174;20.996;2022-08-01T01:13:31;100135.20;;;16.70
68588;BMP180;55560;52.174;20.996;2022-08-01T01:16:13;100133.80;;;16.70
68588;BMP180;55560;52.174;20.996;2022-08-01T01:19:01;100133.80;;;16.70
68588;BMP180;55560;52.174;20.996;2022-08-01T01:24:34;100133.80;;;16.70
68588;BMP180;55560;52.174;20.996;2022-08-01T01:27:20;100139.80;;;16.70
68588;BMP180;55560;52.174;20.996;2022-08-01T01:29:52;100135.40;;;16.66
68588;BMP180;55560;52.174;20.996;2022-08-01T01:32:43;100132.00;;;16.60
68588;BMP180;55560;52.174;20.996;2022-08-01T01:35:17;100133.80;;;16.60
68588;BMP180;55560;52.174;20.996;2022-08-01T01:37:49;100134.80;;;16.60
68588;BMP180;55560;52.174;20.996;2022-08-01T01:40:17;100128.80;;;16.60
68588;BMP180;55560;52.174;20.996;2022-08-01T01:42:46;100130.80;;;16.60
68588;BMP180;55560;52.174;20.996;2022-08-01T01:45:13;100131.00;;;16.60
68588;BMP180;55560;52.174;20.996;2022-08-01T01:47:40;100135.20;;;16.58
68588;BMP180;55560;52.174;20.996;2022-08-01T01:50:10;100137.40;;;16.56
68588;BMP180;55560;52.174;20.996;2022-08-01T01:52:40;100137.40;;;16.50
68588;BMP180;55560;52.174;20.996;2022-08-01T01:55:08;100135.20;;;16.50
68588;BMP180;55560;52.174;20.996;2022-08-01T01:57:40;100133.20;;;16.48
68588;BMP180;55560;52.174;20.996;2022-08-01T02:00:12;100135.80;;;16.40
68588;BMP180;55560;52.174;20.996;2022-08-01T02:02:44;100132.60;;;16.40
68588;BMP180;55560;52.174;20.996;2022-08-01T02:05:12;100128.80;;;16.38
68588;BMP180;55560;52.174;20.996;2022-08-01T02:07:40;100128.40;;;16.30
68588;BMP180;55560;52.174;20.996;2022-08-01T02:10:07;100123.00;;;16.30
68588;BMP180;55560;52.174;20.996;2022-08-01T02:12:37;100122.80;;;16.30
68588;BMP180;55560;52.174;20.996;2022-08-01T02:15:06;100118.00;;;16.30
68588;BMP180;55560;52.174;20.996;2022-08-01T02:17:37;100119.80;;;16.20
68588;BMP180;55560;52.174;20.996;2022-08-01T02:20:06;100122.20;;;16.20
68588;BMP180;55560;52.174;20.996;2022-08-01T02:22:40;100123.60;;;16.10
68588;BMP180;55560;52.174;20.996;2022-08-01T02:25:20;100119.40;;;16.10
68588;BMP180;55560;52.174;20.996;2022-08-01T02:28:06;100115.60;;;16.10
68588;BMP180;55560;52.174;20.996;2022-08-01T02:30:37;100120.00;;;16.00
68588;BMP180;55560;52.174;20.996;2022-08-01T02:33:10;100120.60;;;16.00
68588;BMP180;55560;52.174;20.996;2022-08-01T02:35:46;100123.80;;;15.90
68588;BMP180;55560;52.174;20.996;2022-08-01T02:38:39;100130.00;;;15.90
68588;BMP180;55560;52.174;20.996;2022-08-01T02:41:14;100133.00;;;15.90
68588;BMP180;55560;52.174;20.996;2022-08-01T02:43:47;100134.20;;;15.80
68588;BMP180;55560;52.174;20.996;2022-08-01T02:46:52;100134.00;;;15.80
68588;BMP180;55560;52.174;20.996;2022-08-01T02:49:21;100135.60;;;15.78
68588;BMP180;55560;52.174;20.996;2022-08-01T02:51:49;100132.60;;;15.70
68588;BMP180;55560;52.174;20.996;2022-08-01T02:54:18;100137.40;;;15.70
68588;BMP180;55560;52.174;20.996;2022-08-01T02:56:47;100134.40;;;15.64
68588;BMP180;55560;52.174;20.996;2022-08-01T02:59:18;100137.80;;;15.64
68588;BMP180;55560;52.174;20.996;2022-08-01T03:01:48;100134.00;;;15.60
68588;BMP180;55560;52.174;20.996;2022-08-01T03:04:17;100134.40;;;15.60
68588;BMP180;55560;52.174;20.996;2022-08-01T03:06:44;100138.20;;;15.60
68588;BMP180;55560;52.174;20.996;2022-08-01T03:09:12;100139.40;;;15.60
68588;BMP180;55560;52.174;20.996;2022-08-01T03:11:44;100141.60;;;15.60
68588;BMP180;55560;52.174;20.996;2022-08-01T03:14:12;100146.40;;;15.50
68588;BMP180;55560;52.174;20.996;2022-08-01T03:16:42;100140.00;;;15.50
68588;BMP180;55560;52.174;20.996;2022-08-01T03:19:11;100141.40;;;15.50
68588;BMP180;55560;52.174;20.996;2022-08-01T03:21:40;100145.40;;;15.48
68588;BMP180;55560;52.174;20.996;2022-08-01T03:24:08;100142.80;;;15.40
68588;BMP180;55560;52.174;20.996;2022-08-01T03:26:36;100143.20;;;15.40
68588;BMP180;55560;52.174;20.996;2022-08-01T03:29:06;100140.00;;;15.40
68588;BMP180;55560;52.174;20.996;2022-08-01T03:31:37;100144.60;;;15.40
68588;BMP180;55560;52.174;20.996;2022-08-01T03:34:04;100140.60;;;15.40
68588;BMP180;55560;52.174;20.996;2022-08-01T03:36:32;100140.60;;;15.40
68588;BMP180;55560;52.174;20.996;2022-08-01T03:39:03;100145.20;;;15.40
68588;BMP180;55560;52.174;20.996;2022-08-01T03:41:37;100148.20;;;15.40
68588;BMP180;55560;52.174;20.996;2022-08-01T03:44:12;100151.40;;;15.40
68588;BMP180;55560;52.174;20.996;2022-08-01T03:46:47;100158.40;;;15.40
68588;BMP180;55560;52.174;20.996;2022-08-01T03:49:18;100157.60;;;15.40
68588;BMP180;55560;52.174;20.996;2022-08-01T03:51:48;100158.20;;;15.40
68588;BMP180;55560;52.174;20.996;2022-08-01T03:54:23;100160.80;;;15.40
68588;BMP180;55560;52.174;20.996;2022-08-01T03:56:51;100162.60;;;15.42
68588;BMP180;55560;52.174;20.996;2022-08-01T03:59:19;100164.20;;;15.48
68588;BMP180;55560;52.174;20.996;2022-08-01T04:01:46;100167.60;;;15.50
68588;BMP180;55560;52.174;20.996;2022-08-01T04:04:13;100164.40;;;15.50
68588;BMP180;55560;52.174;20.996;2022-08-01T04:06:41;100173.00;;;15.50
68588;BMP180;55560;52.174;20.996;2022-08-01T04:09:11;100167.80;;;15.50
68588;BMP180;55560;52.174;20.996;2022-08-01T04:11:40;100173.00;;;15.60
68588;BMP180;55560;52.174;20.996;2022-08-01T04:14:07;100174.60;;;15.60
68588;BMP180;55560;52.174;20.996;2022-08-01T04:16:35;100177.00;;;15.60
68588;BMP180;55560;52.174;20.996;2022-08-01T04:19:02;100171.60;;;15.60
68588;BMP180;55560;52.174;20.996;2022-08-01T04:21:31;100177.00;;;15.64
68588;BMP180;55560;52.174;20.996;2022-08-01T04:24:03;100182.20;;;15.70
68588;BMP180;55560;52.174;20.996;2022-08-01T04:26:34;100182.40;;;15.76
68588;BMP180;55560;52.174;20.996;2022-08-01T04:29:04;100189.00;;;15.80
68588;BMP180;55560;52.174;20.996;2022-08-01T04:31:32;100182.00;;;15.80
68588;BMP180;55560;52.174;20.996;2022-08-01T04:34:02;100185.40;;;15.90
68588;BMP180;55560;52.174;20.996;2022-08-01T04:36:33;100186.40;;;15.90
68588;BMP180;55560;52.174;20.996;2022-08-01T04:39:02;100190.20;;;15.94
68588;BMP180;55560;52.174;20.996;2022-08-01T04:41:31;100192.00;;;16.00
68588;BMP180;55560;52.174;20.996;2022-08-01T04:43:58;100191.40;;;16.00
68588;BMP180;55560;52.174;20.996;2022-08-01T04:46:27;100191.60;;;16.08
68588;BMP180;55560;52.174;20.996;2022-08-01T04:48:54;100189.40;;;16.10
68588;BMP180;55560;52.174;20.996;2022-08-01T04:51:21;100184.60;;;16.16
68588;BMP180;55560;52.174;20.996;2022-08-01T04:53:48;100188.80;;;16.20
68588;BMP180;55560;52.174;20.996;2022-08-01T04:56:19;100184.80;;;16.20
68588;BMP180;55560;52.174;20.996;2022-08-01T04:58:47;100187.20;;;16.30
68588;BMP180;55560;52.174;20.996;2022-08-01T05:01:13;100191.00;;;16.30
68588;BMP180;55560;52.174;20.996;2022-08-01T05:03:40;100198.20;;;16.30
68588;BMP180;55560;52.174;20.996;2022-08-01T05:06:07;100200.20;;;16.30
68588;BMP180;55560;52.174;20.996;2022-08-01T05:08:33;100199.60;;;16.30
68588;BMP180;55560;52.174;20.996;2022-08-01T05:11:00;100201.20;;;16.30
68588;BMP180;55560;52.174;20.996;2022-08-01T05:13:27;100202.60;;;16.28
68588;BMP180;55560;52.174;20.996;2022-08-01T05:15:53;100201.60;;;16.20
68588;BMP180;55560;52.174;20.996;2022-08-01T05:18:20;100201.80;;;16.20
68588;BMP180;55560;52.174;20.996;2022-08-01T05:20:54;100214.60;;;16.20
68588;BMP180;55560;52.174;20.996;2022-08-01T05:23:21;100210.20;;;16.20
68588;BMP180;55560;52.174;20.996;2022-08-01T05:26:07;100210.40;;;16.20
68588;BMP180;55560;52.174;20.996;2022-08-01T05:28:35;100212.80;;;16.20
68588;BMP180;55560;52.174;20.996;2022-08-01T05:31:02;100215.00;;;16.12
68588;BMP180;55560;52.174;20.996;2022-08-01T05:33:29;100219.80;;;16.10
68588;BMP180;55560;52.174;20.996;2022-08-01T05:35:55;100219.80;;;16.20
68588;BMP180;55560;52.174;20.996;2022-08-01T05:38:22;100219.00;;;16.20
68588;BMP180;55560;52.174;20.996;2022-08-01T05:40:48;100220.20;;;16.30
68588;BMP180;55560;52.174;20.996;2022-08-01T05:43:15;100230.20;;;16.40
68588;BMP180;55560;52.174;20.996;2022-08-01T05:45:42;100230.40;;;16.50
68588;BMP180;55560;52.174;20.996;2022-08-01T05:48:08;100227.60;;;16.70
68588;BMP180;55560;52.174;20.996;2022-08-01T05:50:35;100232.20;;;16.90
68588;BMP180;55560;52.174;20.996;2022-08-01T05:53:01;100226.40;;;17.14
68588;BMP180;55560;52.174;20.996;2022-08-01T05:55:28;100223.00;;;17.30
68588;BMP180;55560;52.174;20.996;2022-08-01T05:57:54;100230.60;;;17.40
68588;BMP180;55560;52.174;20.996;2022-08-01T06:00:21;100232.60;;;17.50
68588;BMP180;55560;52.174;20.996;2022-08-01T06:02:48;100236.80;;;17.60
68588;BMP180;55560;52.174;20.996;2022-08-01T06:05:15;100237.60;;;17.70
68588;BMP180;55560;52.174;20.996;2022-08-01T06:07:42;100233.80;;;17.80
68588;BMP180;55560;52.174;20.996;2022-08-01T06:10:09;100231.60;;;17.90
68588;BMP180;55560;52.174;20.996;2022-08-01T06:12:37;100230.60;;;18.00
68588;BMP180;55560;52.174;20.996;2022-08-01T06:15:05;100229.00;;;18.20
68588;BMP180;55560;52.174;20.996;2022-08-01T06:17:32;100230.20;;;19.04
68588;BMP180;55560;52.174;20.996;2022-08-01T06:19:59;100232.80;;;19.76
68588;BMP180;55560;52.174;20.996;2022-08-01T06:22:26;100231.20;;;20.00
68588;BMP180;55560;52.174;20.996;2022-08-01T06:24:52;100234.00;;;20.02
68588;BMP180;55560;52.174;20.996;2022-08-01T06:27:19;100237.40;;;20.10
68588;BMP180;55560;52.174;20.996;2022-08-01T06:29:48;100236.80;;;20.40
68588;BMP180;55560;52.174;20.996;2022-08-01T06:32:20;100236.40;;;20.88
68588;BMP180;55560;52.174;20.996;2022-08-01T06:34:54;100240.80;;;21.38
68588;BMP180;55560;52.174;20.996;2022-08-01T06:37:21;100245.80;;;21.70
68588;BMP180;55560;52.174;20.996;2022-08-01T06:39:49;100240.40;;;22.16
68588;BMP180;55560;52.174;20.996;2022-08-01T06:42:15;100250.00;;;23.64
68588;BMP180;55560;52.174;20.996;2022-08-01T06:44:42;100249.00;;;24.00
68588;BMP180;55560;52.174;20.996;2022-08-01T06:47:08;100249.20;;;24.20
68588;BMP180;55560;52.174;20.996;2022-08-01T06:49:35;100248.80;;;24.06
68588;BMP180;55560;52.174;20.996;2022-08-01T06:52:02;100250.80;;;23.48
68588;BMP180;55560;52.174;20.996;2022-08-01T06:54:30;100248.80;;;23.10
68588;BMP180;55560;52.174;20.996;2022-08-01T06:56:56;100249.40;;;22.74
68588;BMP180;55560;52.174;20.996;2022-08-01T06:59:23;100247.00;;;22.32
68588;BMP180;55560;52.174;20.996;2022-08-01T07:01:49;100241.20;;;22.00
68588;BMP180;55560;52.174;20.996;2022-08-01T07:04:16;100240.00;;;21.80
68588;BMP180;55560;52.174;20.996;2022-08-01T07:06:43;100239.80;;;21.58
68588;BMP180;55560;52.174;20.996;2022-08-01T07:09:09;100236.00;;;21.40
68588;BMP180;55560;52.174;20.996;2022-08-01T07:11:40;100241.20;;;21.20
68588;BMP180;55560;52.174;20.996;2022-08-01T07:14:07;100243.40;;;21.00
68588;BMP180;55560;52.174;20.996;2022-08-01T07:16:34;100242.80;;;20.90
68588;BMP180;55560;52.174;20.996;2022-08-01T07:19:01;100239.40;;;20.72
68588;BMP180;55560;52.174;20.996;2022-08-01T07:21:27;100241.60;;;20.50
68588;BMP180;55560;52.174;20.996;2022-08-01T07:24:11;100240.60;;;20.42
68588;BMP180;55560;52.174;20.996;2022-08-01T07:26:44;100242.80;;;20.40
68588;BMP180;55560;52.174;20.996;2022-08-01T07:29:23;100242.80;;;20.40
68588;BMP180;55560;52.174;20.996;2022-08-01T07:31:52;100239.40;;;20.40
68588;BMP180;55560;52.174;20.996;2022-08-01T07:34:19;100237.80;;;20.40
68588;BMP180;55560;52.174;20.996;2022-08-01T07:36:46;100232.60;;;20.40
68588;BMP180;55560;52.174;20.996;2022-08-01T07:39:12;100233.20;;;20.40
68588;BMP180;55560;52.174;20.996;2022-08-01T07:41:39;100232.40;;;20.42
68588;BMP180;55560;52.174;20.996;2022-08-01T07:44:25;100228.20;;;20.40
68588;BMP180;55560;52.174;20.996;2022-08-01T07:46:55;100229.00;;;20.78
68588;BMP180;55560;52.174;20.996;2022-08-01T07:49:21;100228.20;;;21.68
68588;BMP180;55560;52.174;20.996;2022-08-01T07:51:48;100230.40;;;22.48
68588;BMP180;55560;52.174;20.996;2022-08-01T07:54:34;100233.80;;;22.80
68588;BMP180;55560;52.174;20.996;2022-08-01T07:57:02;100236.20;;;22.50
68588;BMP180;55560;52.174;20.996;2022-08-01T07:59:29;100232.80;;;22.36
68588;BMP180;55560;52.174;20.996;2022-08-01T08:01:56;100234.00;;;22.22
68588;BMP180;55560;52.174;20.996;2022-08-01T08:04:22;100229.40;;;22.10
68588;BMP180;55560;52.174;20.996;2022-08-01T08:06:49;100229.60;;;22.02
68588;BMP180;55560;52.174;20.996;2022-08-01T08:09:16;100227.60;;;22.00
68588;BMP180;55560;52.174;20.996;2022-08-01T08:11:44;100228.40;;;21.90
68588;BMP180;55560;52.174;20.996;2022-08-01T08:14:15;100234.40;;;21.80
68588;BMP180;55560;52.174;20.996;2022-08-01T08:16:42;100238.60;;;21.70
68588;BMP180;55560;52.174;20.996;2022-08-01T08:19:09;100237.60;;;21.66
68588;BMP180;55560;52.174;20.996;2022-08-01T08:21:37;100237.00;;;21.52
68588;BMP180;55560;52.174;20.996;2022-08-01T08:24:04;100237.60;;;21.50
68588;BMP180;55560;52.174;20.996;2022-08-01T08:26:54;100240.00;;;21.50
68588;BMP180;55560;52.174;20.996;2022-08-01T08:29:21;100240.40;;;21.42
68588;BMP180;55560;52.174;20.996;2022-08-01T08:31:49;100241.40;;;21.46
68588;BMP180;55560;52.174;20.996;2022-08-01T08:34:19;100244.20;;;21.40
68588;BMP180;55560;52.174;20.996;2022-08-01T08:36:47;100246.20;;;21.50
68588;BMP180;55560;52.174;20.996;2022-08-01T08:39:16;100247.60;;;21.50
68588;BMP180;55560;52.174;20.996;2022-08-01T08:41:47;100250.20;;;21.50
68588;BMP180;55560;52.174;20.996;2022-08-01T08:44:17;100251.20;;;21.50
68588;BMP180;55560;52.174;20.996;2022-08-01T08:46:49;100255.40;;;21.40
68588;BMP180;55560;52.174;20.996;2022-08-01T08:49:27;100257.20;;;21.32
68588;BMP180;55560;52.174;20.996;2022-08-01T08:52:04;100262.40;;;21.30
68588;BMP180;55560;52.174;20.996;2022-08-01T08:54:32;100256.20;;;21.30
68588;BMP180;55560;52.174;20.996;2022-08-01T08:57:01;100259.80;;;21.38
68588;BMP180;55560;52.174;20.996;2022-08-01T08:59:28;100262.60;;;21.30
68588;BMP180;55560;52.174;20.996;2022-08-01T09:01:56;100263.20;;;21.32
68588;BMP180;55560;52.174;20.996;2022-08-01T09:04:25;100265.20;;;21.40
68588;BMP180;55560;52.174;20.996;2022-08-01T09:06:54;100262.80;;;21.42
68588;BMP180;55560;52.174;20.996;2022-08-01T09:09:20;100269.40;;;21.50
68588;BMP180;55560;52.174;20.996;2022-08-01T09:11:47;100275.40;;;21.50
68588;BMP180;55560;52.174;20.996;2022-08-01T09:14:32;100275.00;;;21.60
68588;BMP180;55560;52.174;20.996;2022-08-01T09:17:05;100279.80;;;21.60
68588;BMP180;55560;52.174;20.996;2022-08-01T09:19:46;100281.40;;;21.70
68588;BMP180;55560;52.174;20.996;2022-08-01T09:22:17;100278.80;;;21.70
68588;BMP180;55560;52.174;20.996;2022-08-01T09:25:07;100279.60;;;21.70
68588;BMP180;55560;52.174;20.996;2022-08-01T09:27:36;100280.40;;;21.70
68588;BMP180;55560;52.174;20.996;2022-08-01T09:30:15;100281.80;;;21.70
68588;BMP180;55560;52.174;20.996;2022-08-01T09:33:02;100286.80;;;21.70
68588;BMP180;55560;52.174;20.996;2022-08-01T09:35:54;100289.20;;;21.70
68588;BMP180;55560;52.174;20.996;2022-08-01T09:38:23;100286.20;;;21.80
68588;BMP180;55560;52.174;20.996;2022-08-01T09:40:59;100288.00;;;21.80
68588;BMP180;55560;52.174;20.996;2022-08-01T09:43:29;100288.20;;;21.80
68588;BMP180;55560;52.174;20.996;2022-08-01T09:45:58;100282.80;;;21.90
68588;BMP180;55560;52.174;20.996;2022-08-01T09:48:25;100279.00;;;22.00
68588;BMP180;55560;52.174;20.996;2022-08-01T09:50:58;100279.00;;;22.00
68588;BMP180;55560;52.174;20.996;2022-08-01T09:53:48;100277.40;;;22.00
68588;BMP180;55560;52.174;20.996;2022-08-01T09:56:21;100284.40;;;22.00
68588;BMP180;55560;52.174;20.996;2022-08-01T09:58:56;100284.60;;;22.00
68588;BMP180;55560;52.174;20.996;2022-08-01T10:01:40;100279.60;;;22.00
68588;BMP180;55560;52.174;20.996;2022-08-01T10:04:12;100284.00;;;22.10
68588;BMP180;55560;52.174;20.996;2022-08-01T10:06:44;100283.20;;;22.10
68588;BMP180;55560;52.174;20.996;2022-08-01T10:09:13;100278.00;;;22.20
68588;BMP180;55560;52.174;20.996;2022-08-01T10:11:42;100285.00;;;22.20
68588;BMP180;55560;52.174;20.996;2022-08-01T10:14:11;100284.40;;;22.30
68588;BMP180;55560;52.174;20.996;2022-08-01T10:16:45;100284.60;;;22.30
68588;BMP180;55560;52.174;20.996;2022-08-01T10:19:23;100279.40;;;22.30
68588;BMP180;55560;52.174;20.996;2022-08-01T10:21:52;100277.40;;;22.30
68588;BMP180;55560;52.174;20.996;2022-08-01T10:24:27;100278.80;;;22.40
68588;BMP180;55560;52.174;20.996;2022-08-01T10:27:02;100284.20;;;22.40
68588;BMP180;55560;52.174;20.996;2022-08-01T10:29:58;100280.60;;;22.40
68588;BMP180;55560;52.174;20.996;2022-08-01T10:32:46;100269.80;;;22.40
68588;BMP180;55560;52.174;20.996;2022-08-01T10:35:17;100280.40;;;22.40
68588;BMP180;55560;52.174;20.996;2022-08-01T10:38:04;100274.80;;;22.50
68588;BMP180;55560;52.174;20.996;2022-08-01T10:40:32;100284.20;;;22.70
68588;BMP180;55560;52.174;20.996;2022-08-01T10:43:02;100276.60;;;22.80
68588;BMP180;55560;52.174;20.996;2022-08-01T10:45:29;100275.20;;;22.80
68588;BMP180;55560;52.174;20.996;2022-08-01T10:48:18;100270.00;;;22.88
68588;BMP180;55560;52.174;20.996;2022-08-01T10:50:49;100275.60;;;23.00
68588;BMP180;55560;52.174;20.996;2022-08-01T10:53:23;100279.00;;;23.00
68588;BMP180;55560;52.174;20.996;2022-08-01T10:56:09;100274.60;;;23.00
68588;BMP180;55560;52.174;20.996;2022-08-01T10:58:41;100275.40;;;23.10
68588;BMP180;55560;52.174;20.996;2022-08-01T11:01:34;100277.00;;;23.10
68588;BMP180;55560;52.174;20.996;2022-08-01T11:04:12;100267.40;;;23.20
68588;BMP180;55560;52.174;20.996;2022-08-01T11:07:02;100265.00;;;23.20
68588;BMP180;55560;52.174;20.996;2022-08-01T11:09:43;100270.80;;;23.28
68588;BMP180;55560;52.174;20.996;2022-08-01T11:12:18;100266.00;;;23.30
68588;BMP180;55560;52.174;20.996;2022-08-01T11:17:43;100264.20;;;23.30
68588;BMP180;55560;52.174;20.996;2022-08-01T11:20:26;100263.00;;;23.40
68588;BMP180;55560;52.174;20.996;2022-08-01T11:25:28;100271.80;;;23.52
68588;BMP180;55560;52.174;20.996;2022-08-01T11:28:34;100264.20;;;23.60
68588;BMP180;55560;52.174;20.996;2022-08-01T11:41:28;100261.80;;;24.00
68588;BMP180;55560;52.174;20.996;2022-08-01T11:44:07;100268.20;;;24.10
68588;BMP180;55560;52.174;20.996;2022-08-01T11:47:06;100267.40;;;24.20
68588;BMP180;55560;52.174;20.996;2022-08-01T11:52:15;100261.60;;;24.30
68588;BMP180;55560;52.174;20.996;2022-08-01T11:54:48;100260.80;;;24.34
68588;BMP180;55560;52.174;20.996;2022-08-01T11:57:28;100264.00;;;24.40
68588;BMP180;55560;52.174;20.996;2022-08-01T12:00:16;100265.20;;;24.58
68588;BMP180;55560;52.174;20.996;2022-08-01T12:03:11;100263.60;;;24.70
68588;BMP180;55560;52.174;20.996;2022-08-01T12:05:56;100260.60;;;24.70
68588;BMP180;55560;52.174;20.996;2022-08-01T12:08:32;100265.00;;;24.80
68588;BMP180;55560;52.174;20.996;2022-08-01T12:11:02;100262.00;;;24.88
68588;BMP180;55560;52.174;20.996;2022-08-01T12:13:41;100261.00;;;24.90
68588;BMP180;55560;52.174;20.996;2022-08-01T12:16:10;100265.20;;;24.84
68588;BMP180;55560;52.174;20.996;2022-08-01T12:18:42;100260.80;;;25.00
68588;BMP180;55560;52.174;20.996;2022-08-01T12:21:08;100264.20;;;25.10
68588;BMP180;55560;52.174;20.996;2022-08-01T12:23:35;100260.80;;;25.20
68588;BMP180;55560;52.174;20.996;2022-08-01T12:26:01;100259.60;;;25.30
68588;BMP180;55560;52.174;20.996;2022-08-01T12:28:39;100259.80;;;25.40
68588;BMP180;55560;52.174;20.996;2022-08-01T12:31:06;100259.60;;;25.44
68588;BMP180;55560;52.174;20.996;2022-08-01T12:33:33;100260.80;;;25.58
68588;BMP180;55560;52.174;20.996;2022-08-01T12:36:01;100268.00;;;25.64
68588;BMP180;55560;52.174;20.996;2022-08-01T12:38:27;100263.00;;;25.80
68588;BMP180;55560;52.174;20.996;2022-08-01T12:40:56;100260.60;;;25.90
68588;BMP180;55560;52.174;20.996;2022-08-01T12:43:23;100259.40;;;25.98
68588;BMP180;55560;52.174;20.996;2022-08-01T12:45:57;100258.20;;;26.10
68588;BMP180;55560;52.174;20.996;2022-08-01T12:48:25;100259.60;;;26.22
68588;BMP180;55560;52.174;20.996;2022-08-01T12:50:53;100267.20;;;26.40
68588;BMP180;55560;52.174;20.996;2022-08-01T12:53:23;100267.20;;;26.50
68588;BMP180;55560;52.174;20.996;2022-08-01T12:55:54;100262.80;;;26.70
68588;BMP180;55560;52.174;20.996;2022-08-01T12:58:33;100254.20;;;26.80
68588;BMP180;55560;52.174;20.996;2022-08-01T13:01:06;100258.80;;;26.90
68588;BMP180;55560;52.174;20.996;2022-08-01T13:03:33;100259.00;;;27.10
68588;BMP180;55560;52.174;20.996;2022-08-01T13:06:00;100254.00;;;27.26
68588;BMP180;55560;52.174;20.996;2022-08-01T13:08:34;100257.40;;;27.40
68588;BMP180;55560;52.174;20.996;2022-08-01T13:11:04;100259.20;;;27.50
68588;BMP180;55560;52.174;20.996;2022-08-01T13:13:43;100252.40;;;27.58
68588;BMP180;55560;52.174;20.996;2022-08-01T13:16:11;100256.80;;;27.62
68588;BMP180;55560;52.174;20.996;2022-08-01T13:18:54;100257.80;;;27.80
68588;BMP180;55560;52.174;20.996;2022-08-01T13:21:30;100263.60;;;27.80
68588;BMP180;55560;52.174;20.996;2022-08-01T13:26:56;100256.40;;;28.00
68588;BMP180;55560;52.174;20.996;2022-08-01T13:29:39;100255.60;;;28.20
68588;BMP180;55560;52.174;20.996;2022-08-01T13:32:20;100256.20;;;28.40
68588;BMP180;55560;52.174;20.996;2022-08-01T13:35:07;100255.40;;;28.66
68588;BMP180;55560;52.174;20.996;2022-08-01T13:37:36;100256.40;;;28.90
68588;BMP180;55560;52.174;20.996;2022-08-01T13:40:07;100250.60;;;29.16
68588;BMP180;55560;52.174;20.996;2022-08-01T13:42:33;100250.40;;;29.48
68588;BMP180;55560;52.174;20.996;2022-08-01T13:45:01;100255.20;;;29.70
68588;BMP180;55560;52.174;20.996;2022-08-01T13:47:29;100261.20;;;29.80
68588;BMP180;55560;52.174;20.996;2022-08-01T13:50:00;100264.20;;;29.90
68588;BMP180;55560;52.174;20.996;2022-08-01T13:52:28;100260.20;;;30.36
68588;BMP180;55560;52.174;20.996;2022-08-01T13:54:55;100266.80;;;31.16
68588;BMP180;55560;52.174;20.996;2022-08-01T13:57:21;100262.80;;;31.48
68588;BMP180;55560;52.174;20.996;2022-08-01T13:59:48;100268.80;;;32.28
68588;BMP180;55560;52.174;20.996;2022-08-01T14:02:15;100276.60;;;33.28
68588;BMP180;55560;52.174;20.996;2022-08-01T14:04:41;100283.80;;;35.50
68588;BMP180;55560;52.174;20.996;2022-08-01T14:07:08;100293.40;;;37.46
68588;BMP180;55560;52.174;20.996;2022-08-01T14:09:41;100302.20;;;39.16
68588;BMP180;55560;52.174;20.996;2022-08-01T14:12:28;100309.40;;;40.32
68588;BMP180;55560;52.174;20.996;2022-08-01T14:14:55;100316.20;;;41.90
68588;BMP180;55560;52.174;20.996;2022-08-01T14:17:22;100314.80;;;43.12
68588;BMP180;55560;52.174;20.996;2022-08-01T14:19:48;100322.60;;;44.92
68588;BMP180;55560;52.174;20.996;2022-08-01T14:22:15;100327.80;;;46.24
68588;BMP180;55560;52.174;20.996;2022-08-01T14:24:41;100332.00;;;47.62
68588;BMP180;55560;52.174;20.996;2022-08-01T14:27:08;100337.80;;;48.04
68588;BMP180;55560;52.174;20.996;2022-08-01T14:29:35;100337.00;;;47.68
68588;BMP180;55560;52.174;20.996;2022-08-01T14:32:22;100335.20;;;47.34
68588;BMP180;55560;52.174;20.996;2022-08-01T14:34:55;100337.40;;;47.20
68588;BMP180;55560;52.174;20.996;2022-08-01T14:37:23;100346.80;;;48.40